Trine Charlotte — LMRY — position and weather

sailwx.info

Track history (hours):
 
Tides and Currents Weather Stations Pressure Air Temp Water Temp Dewpoint Dewpoint Depression Visibility Wind Speed Wind Dir Waves Ship Positions

Trine Charlotte

Last reported at 2016-Jul-27 13:20 UTC. Time now 2016-Jul-28 16:29 UTC.
Position N 66°17' E 012°55'.

Length 66 m; draft 5 m.

Type: Cargo ship. MMSI: 257233000.

Date/timePositionNaut miles runAvg speedWind from/ knotsBaromVisibWave heightAir tempDewpointWater temp
2016-Jul-27 13:20N 66°17' E 012°55'7 9.2
2016-Jul-27 12:33N 66°24' E 012°58'9 8.5
2016-Jul-27 11:33N 66°32' E 012°60'18 8.4
2016-Jul-27 09:22N 66°50' E 013°16'7 8.9
2016-Jul-27 08:33N 66°55' E 013°29'9 8.0
2016-Jul-27 07:28N 67°01' E 013°44'8 8.6
2016-Jul-27 06:34N 67°06' E 013°59'8 8.3
2016-Jul-27 05:34N 67°14' E 014°09'9 8.5
2016-Jul-27 04:34N 67°21' E 014°22'9 8.8
2016-Jul-27 03:33N 67°29' E 014°29'9 9.0
2016-Jul-27 02:33N 67°38' E 014°30'112 4.3
2016-Jul-26 00:33N 69°07' E 017°34'10 9.7
2016-Jul-25 23:33N 69°11' E 017°59'9 8.5
2016-Jul-25 22:33N 69°19' E 018°01'0 0.0
2016-Jul-24 14:26N 69°19' E 018°01'8 8.7
2016-Jul-24 13:33N 69°12' E 018°01'10 9.6
2016-Jul-24 12:33N 69°07' E 017°38'12 9.4
2016-Jul-24 11:16N 68°59' E 017°12'  
2016-Jul-22 03:33N 68°42' E 016°40'75 9.1
2016-Jul-21 19:18N 67°44' E 014°31'9 9.8
2016-Jul-21 18:23N 67°35' E 014°30'8 9.8
2016-Jul-21 17:34N 67°27' E 014°28'9 9.2
2016-Jul-21 16:33N 67°18' E 014°23'0 0.4
2016-Jul-21 15:33N 67°18' E 014°23'0 0.0
2016-Jul-21 14:34N 67°18' E 014°23'0 0.0
2016-Jul-21 13:34N 67°18' E 014°23'0 0.0
2016-Jul-21 12:33N 67°18' E 014°23'0 0.0
2016-Jul-21 11:34N 67°18' E 014°23'0 0.0
2016-Jul-21 10:33N 67°18' E 014°23'0 0.0
2016-Jul-21 09:34N 67°18' E 014°23'0 0.0
2016-Jul-21 08:34N 67°18' E 014°23'0 0.0
2016-Jul-21 07:34N 67°18' E 014°23'0 0.4
2016-Jul-21 06:34N 67°17' E 014°23'7 7.2
2016-Jul-21 05:33N 67°17' E 014°04'8 8.3
2016-Jul-21 04:33N 67°22' E 013°46'4 0.3
2016-Jul-20 16:21N 67°24' E 013°38'11 9.4
2016-Jul-20 15:09N 67°17' E 014°02'6 9.6
2016-Jul-20 14:34N 67°17' E 014°17'2 1.5
2016-Jul-20 13:34N 67°16' E 014°21'0 0.0
2016-Jul-20 12:34N 67°16' E 014°21'0 0.0
2016-Jul-20 11:34N 67°16' E 014°21'0 0.0
2016-Jul-20 10:34N 67°16' E 014°21'0 0.0
2016-Jul-20 09:34N 67°16' E 014°21'0 0.0
2016-Jul-20 08:34N 67°16' E 014°21'0 0.0
2016-Jul-20 07:34N 67°16' E 014°21'0 0.0
2016-Jul-20 06:34N 67°16' E 014°21'0 0.0
2016-Jul-20 05:34N 67°16' E 014°21'5 5.0
2016-Jul-20 04:34N 67°13' E 014°11'9 8.7
2016-Jul-20 03:33N 67°06' E 013°58'9 8.7
2016-Jul-20 02:33N 67°00' E 013°41'7 7.4
2016-Jul-20 01:34N 66°55' E 013°28'11 8.4
2016-Jul-20 00:18N 66°46' E 013°13'16 8.4
2016-Jul-19 22:27N 66°32' E 012°58'8 9.0
2016-Jul-19 21:33N 66°24' E 012°58'7 1.9
2016-Jul-19 18:08N 66°17' E 012°55'6 9.4
2016-Jul-19 17:32N 66°23' E 012°58'9 9.5
2016-Jul-19 16:32N 66°32' E 012°59'35 8.7
2016-Jul-19 12:33N 67°02' E 013°46'9 8.8
2016-Jul-19 11:33N 67°08' E 014°01'8 8.4
2016-Jul-19 10:34N 67°15' E 014°14'3 3.1
2016-Jul-19 09:34N 67°16' E 014°21'0 0.0
2016-Jul-19 08:34N 67°16' E 014°21'0 0.0
2016-Jul-19 07:34N 67°16' E 014°21'0 0.0
2016-Jul-19 04:34N 67°16' E 014°21'0 0.0
2016-Jul-19 03:34N 67°16' E 014°21'0 0.0
2016-Jul-19 02:33N 67°16' E 014°21'2 1.7
2016-Jul-19 01:33N 67°15' E 014°22'6 6.2
2016-Jul-19 00:34N 67°14' E 014°38'7 7.4
2016-Jul-18 23:33N 67°16' E 014°56'2 0.6
2016-Jul-18 19:31N 67°14' E 015°00'7 7.4
2016-Jul-18 18:33N 67°13' E 014°42'4 4.1
2016-Jul-18 17:33N 67°16' E 014°34'0 0.4
2016-Jul-18 16:33N 67°16' E 014°33'1 0.8
2016-Jul-18 15:33N 67°15' E 014°31'2 1.8
2016-Jul-18 14:33N 67°15' E 014°27'4 3.7
2016-Jul-18 13:33N 67°14' E 014°18'3 2.5
2016-Jul-18 12:33N 67°16' E 014°21'0 0.0
2016-Jul-18 11:33N 67°16' E 014°21'0 0.0
2016-Jul-18 10:33N 67°16' E 014°21'0 0.0
2016-Jul-18 09:33N 67°16' E 014°21'0 0.0
2016-Jul-18 08:33N 67°16' E 014°21'0 0.0
2016-Jul-18 07:33N 67°16' E 014°21'0 0.0
2016-Jul-18 06:33N 67°16' E 014°21'0 0.0
2016-Jul-18 05:33N 67°16' E 014°21'1 0.9
2016-Jul-18 04:33N 67°16' E 014°18'9 8.6
2016-Jul-18 03:33N 67°10' E 014°03'8 8.4
2016-Jul-18 02:33N 67°03' E 013°50'9 8.7
2016-Jul-18 01:33N 66°58' E 013°32'8 7.4
2016-Jul-18 00:31N 66°52' E 013°20'8 8.2
2016-Jul-17 23:31N 66°44' E 013°12'17 8.3
2016-Jul-17 21:27N 66°28' E 012°60'8 9.0
2016-Jul-17 20:33N 66°20' E 012°57'  
Track history (hours):
 
Tides and Currents Weather Stations Pressure Air Temp Water Temp Dewpoint Dewpoint Depression Visibility Wind Speed Wind Dir Waves Ship Positions

Trine Charlotte

Last reported at 2016-Jul-27 13:20 UTC. Time now 2016-Jul-28 16:29 UTC.
Position N 66°17' E 012°55'.

Length 66 m; draft 5 m.

Type: Cargo ship. MMSI: 257233000.

Date/timePositionNaut miles runAvg speedWind from/ knotsBaromVisibWave heightAir tempDewpointWater temp
2016-Jul-27 13:20N 66°17' E 012°55'7 9.2
2016-Jul-27 12:33N 66°24' E 012°58'9 8.5
2016-Jul-27 11:33N 66°32' E 012°60'18 8.4
2016-Jul-27 09:22N 66°50' E 013°16'7 8.9
2016-Jul-27 08:33N 66°55' E 013°29'9 8.0
2016-Jul-27 07:28N 67°01' E 013°44'8 8.6
2016-Jul-27 06:34N 67°06' E 013°59'8 8.3
2016-Jul-27 05:34N 67°14' E 014°09'9 8.5
2016-Jul-27 04:34N 67°21' E 014°22'9 8.8
2016-Jul-27 03:33N 67°29' E 014°29'9 9.0
2016-Jul-27 02:33N 67°38' E 014°30'112 4.3
2016-Jul-26 00:33N 69°07' E 017°34'10 9.7
2016-Jul-25 23:33N 69°11' E 017°59'9 8.5
2016-Jul-25 22:33N 69°19' E 018°01'0 0.0
2016-Jul-24 14:26N 69°19' E 018°01'8 8.7
2016-Jul-24 13:33N 69°12' E 018°01'10 9.6
2016-Jul-24 12:33N 69°07' E 017°38'12 9.4
2016-Jul-24 11:16N 68°59' E 017°12'  
2016-Jul-22 03:33N 68°42' E 016°40'75 9.1
2016-Jul-21 19:18N 67°44' E 014°31'9 9.8
2016-Jul-21 18:23N 67°35' E 014°30'8 9.8
2016-Jul-21 17:34N 67°27' E 014°28'9 9.2
2016-Jul-21 16:33N 67°18' E 014°23'0 0.4
2016-Jul-21 15:33N 67°18' E 014°23'0 0.0
2016-Jul-21 14:34N 67°18' E 014°23'0 0.0
2016-Jul-21 13:34N 67°18' E 014°23'0 0.0
2016-Jul-21 12:33N 67°18' E 014°23'0 0.0
2016-Jul-21 11:34N 67°18' E 014°23'0 0.0
2016-Jul-21 10:33N 67°18' E 014°23'0 0.0
2016-Jul-21 09:34N 67°18' E 014°23'0 0.0
2016-Jul-21 08:34N 67°18' E 014°23'0 0.0
2016-Jul-21 07:34N 67°18' E 014°23'0 0.4
2016-Jul-21 06:34N 67°17' E 014°23'7 7.2
2016-Jul-21 05:33N 67°17' E 014°04'8 8.3
2016-Jul-21 04:33N 67°22' E 013°46'4 0.3
2016-Jul-20 16:21N 67°24' E 013°38'11 9.4
2016-Jul-20 15:09N 67°17' E 014°02'6 9.6
2016-Jul-20 14:34N 67°17' E 014°17'2 1.5
2016-Jul-20 13:34N 67°16' E 014°21'0 0.0
2016-Jul-20 12:34N 67°16' E 014°21'0 0.0
2016-Jul-20 11:34N 67°16' E 014°21'0 0.0
2016-Jul-20 10:34N 67°16' E 014°21'0 0.0
2016-Jul-20 09:34N 67°16' E 014°21'0 0.0
2016-Jul-20 08:34N 67°16' E 014°21'0 0.0
2016-Jul-20 07:34N 67°16' E 014°21'0 0.0
2016-Jul-20 06:34N 67°16' E 014°21'0 0.0
2016-Jul-20 05:34N 67°16' E 014°21'5 5.0
2016-Jul-20 04:34N 67°13' E 014°11'9 8.7
2016-Jul-20 03:33N 67°06' E 013°58'9 8.7
2016-Jul-20 02:33N 67°00' E 013°41'7 7.4
2016-Jul-20 01:34N 66°55' E 013°28'11 8.4
2016-Jul-20 00:18N 66°46' E 013°13'16 8.4
2016-Jul-19 22:27N 66°32' E 012°58'8 9.0
2016-Jul-19 21:33N 66°24' E 012°58'7 1.9
2016-Jul-19 18:08N 66°17' E 012°55'6 9.4
2016-Jul-19 17:32N 66°23' E 012°58'9 9.5
2016-Jul-19 16:32N 66°32' E 012°59'35 8.7
2016-Jul-19 12:33N 67°02' E 013°46'9 8.8
2016-Jul-19 11:33N 67°08' E 014°01'8 8.4
2016-Jul-19 10:34N 67°15' E 014°14'3 3.1
2016-Jul-19 09:34N 67°16' E 014°21'0 0.0
2016-Jul-19 08:34N 67°16' E 014°21'0 0.0
2016-Jul-19 07:34N 67°16' E 014°21'0 0.0
2016-Jul-19 04:34N 67°16' E 014°21'0 0.0
2016-Jul-19 03:34N 67°16' E 014°21'0 0.0
2016-Jul-19 02:33N 67°16' E 014°21'2 1.7
2016-Jul-19 01:33N 67°15' E 014°22'6 6.2
2016-Jul-19 00:34N 67°14' E 014°38'7 7.4
2016-Jul-18 23:33N 67°16' E 014°56'2 0.6
2016-Jul-18 19:31N 67°14' E 015°00'7 7.4
2016-Jul-18 18:33N 67°13' E 014°42'4 4.1
2016-Jul-18 17:33N 67°16' E 014°34'0 0.4
2016-Jul-18 16:33N 67°16' E 014°33'1 0.8
2016-Jul-18 15:33N 67°15' E 014°31'2 1.8
2016-Jul-18 14:33N 67°15' E 014°27'4 3.7
2016-Jul-18 13:33N 67°14' E 014°18'3 2.5
2016-Jul-18 12:33N 67°16' E 014°21'0 0.0
2016-Jul-18 11:33N 67°16' E 014°21'0 0.0
2016-Jul-18 10:33N 67°16' E 014°21'0 0.0
2016-Jul-18 09:33N 67°16' E 014°21'0 0.0
2016-Jul-18 08:33N 67°16' E 014°21'0 0.0
2016-Jul-18 07:33N 67°16' E 014°21'0 0.0
2016-Jul-18 06:33N 67°16' E 014°21'0 0.0
2016-Jul-18 05:33N 67°16' E 014°21'1 0.9
2016-Jul-18 04:33N 67°16' E 014°18'9 8.6
2016-Jul-18 03:33N 67°10' E 014°03'8 8.4
2016-Jul-18 02:33N 67°03' E 013°50'9 8.7
2016-Jul-18 01:33N 66°58' E 013°32'8 7.4
2016-Jul-18 00:31N 66°52' E 013°20'8 8.2
2016-Jul-17 23:31N 66°44' E 013°12'17 8.3
2016-Jul-17 21:27N 66°28' E 012°60'8 9.0
2016-Jul-17 20:33N 66°20' E 012°57'  

Dump ship's entire track history